Hanjin Phoenix — A8CN9 — position and weather

sailwx.info

Track history (hours):
 
Tides and Currents Weather Stations Pressure Air Temp Water Temp Dewpoint Dewpoint Depression Visibility Wind Speed Wind Dir Waves Ship Positions

Hanjin Phoenix

Last reported at 2015-Mar-06 04:27 UTC. Time now 2015-Mar-06 06:02 UTC.
Position N 39°24' W 000°13'.

Length 282.1 m; beam 32.2 m; draft 13 m.

Type: Ship. MMSI: 636090671.

Date/timePositionNaut miles runAvg speedWind from/ knotsBaromVisibWave heightAir tempDewpointWater temp
2015-Mar-06 04:27N 39°24' W 000°13'5 5.5
2015-Mar-06 03:31N 39°27' W 000°19'0 0.0
2015-Mar-06 02:33N 39°27' W 000°19'0 0.0
2015-Mar-06 01:30N 39°27' W 000°19'0 0.0
2015-Mar-06 00:33N 39°27' W 000°19'0 0.0
2015-Mar-05 23:33N 39°27' W 000°19'0 0.0
2015-Mar-05 22:29N 39°27' W 000°19'0 0.0
2015-Mar-05 21:33N 39°27' W 000°19'0 0.0
2015-Mar-05 20:33N 39°27' W 000°19'0 0.0
2015-Mar-05 19:33N 39°27' W 000°19'0 0.0
2015-Mar-05 18:32N 39°27' W 000°19'0 0.0
2015-Mar-05 17:32N 39°27' W 000°19'0 0.0
2015-Mar-05 16:32N 39°27' W 000°19'0 0.0
2015-Mar-05 15:32N 39°27' W 000°19'0 0.0
2015-Mar-05 14:29N 39°27' W 000°19'0 0.0
2015-Mar-05 13:32N 39°27' W 000°19'0 0.0
2015-Mar-05 12:32N 39°27' W 000°19'0 0.0
2015-Mar-05 11:32N 39°27' W 000°19'0 0.0
2015-Mar-05 10:32N 39°27' W 000°19'0 0.0
2015-Mar-05 09:33N 39°27' W 000°19'0 0.0
2015-Mar-05 08:33N 39°27' W 000°19'1 0.8
2015-Mar-05 07:33N 39°26' W 000°19'1110.6
2015-Mar-05 06:33N 39°26' W 000°05'8 2.1
2015-Mar-05 02:32N 39°17' W 000°05'3 1.0
2015-Mar-04 23:09N 39°21' W 000°05'1 1.4
2015-Mar-04 22:33N 39°22' W 000°05'2 1.5
2015-Mar-04 21:31N 39°23' W 000°05'2 1.6
2015-Mar-04 20:32N 39°24' W 000°06'1 1.5
2015-Mar-04 19:33N 39°26' W 000°06'2 2.4
2015-Mar-04 18:33N 39°26' W 000°03'7 2.1
2015-Mar-04 15:17N 39°28' E 000°05'57 3.4
2015-Mar-03 22:24N 40°02' E 001°04'1111.8
2015-Mar-03 21:30N 40°11' E 001°12'1111.2
2015-Mar-03 20:33N 40°20' E 001°20'1111.1
2015-Mar-03 19:33N 40°29' E 001°28'1211.4
2015-Mar-03 18:33N 40°39' E 001°36'1111.2
2015-Mar-03 17:33N 40°48' E 001°45'1111.1
2015-Mar-03 16:32N 40°57' E 001°53'1111.1
2015-Mar-03 15:33N 41°06' E 002°01'1211.2
2015-Mar-03 14:31N 41°16' E 002°10'6 4.9
2015-Mar-03 13:23N 41°21' E 002°10'0 0.0
2015-Mar-03 12:17N 41°21' E 002°10'0 0.0
2015-Mar-03 11:29N 41°21' E 002°10'0 0.0
2015-Mar-03 10:25N 41°21' E 002°10'0 0.0
2015-Mar-03 02:28N 41°21' E 002°10'1 0.3
2015-Mar-03 00:33N 41°21' E 002°10'14 9.5
2015-Mar-02 23:04N 41°23' E 002°29'3418.7
2015-Mar-02 21:16N 41°38' E 003°09'1719.9
2015-Mar-02 20:26N 41°46' E 003°28'3619.1
2015-Mar-02 18:32N 42°02' E 004°12'1819.0
2015-Mar-02 17:33N 42°10' E 004°34'2018.4
2015-Mar-02 16:29N 42°19' E 004°58'1918.9
2015-Mar-02 15:29N 42°28' E 005°21'1918.4
2015-Mar-02 14:26N 42°36' E 005°44'2218.2
2015-Mar-02 13:14N 42°46' E 006°11'1318.9
2015-Mar-02 12:32N 42°52' E 006°27'1919.1
2015-Mar-02 11:33N 43°02' E 006°48'1919.0
2015-Mar-02 10:33N 43°14' E 007°09'1817.9
2015-Mar-02 09:33N 43°24' E 007°29'2218.6
2015-Mar-02 08:22N 43°37' E 007°54'2319.2
2015-Mar-02 07:08N 43°51' E 008°20'1318.8
2015-Mar-02 06:26N 44°02' E 008°29'1718.8
2015-Mar-02 05:32N 44°18' E 008°39'9 7.2
2015-Mar-02 04:16N 44°25' E 008°47'0 0.0
2015-Mar-02 03:31N 44°25' E 008°47'0 0.0
2015-Mar-02 02:31N 44°25' E 008°47'0 0.0
2015-Mar-02 01:22N 44°25' E 008°47'0 0.0
2015-Mar-02 00:22N 44°25' E 008°47'0 0.0
2015-Mar-01 23:25N 44°25' E 008°47'0 0.0
2015-Mar-01 22:22N 44°25' E 008°47'0 0.0
2015-Mar-01 21:16N 44°25' E 008°47'0 0.0
2015-Mar-01 20:22N 44°25' E 008°47'0 0.0
2015-Mar-01 19:22N 44°25' E 008°47'0 0.0
2015-Mar-01 16:28N 44°25' E 008°47'0 0.0
2015-Mar-01 15:16N 44°25' E 008°47'0 0.0
2015-Mar-01 14:04N 44°25' E 008°47'0 0.0
2015-Mar-01 13:16N 44°25' E 008°47'0 0.0
2015-Mar-01 11:28N 44°25' E 008°47'0 0.0
2015-Mar-01 10:28N 44°25' E 008°47'0 0.0
2015-Mar-01 09:28N 44°25' E 008°47'0 0.0
2015-Mar-01 08:28N 44°25' E 008°47'0 0.0
2015-Mar-01 07:28N 44°25' E 008°47'0 0.0
2015-Mar-01 05:31N 44°25' E 008°47'0 0.0
2015-Mar-01 04:22N 44°25' E 008°47'0 0.0
2015-Mar-01 03:31N 44°25' E 008°47'0 0.0
2015-Mar-01 02:31N 44°25' E 008°47'0 0.0
2015-Mar-01 01:28N 44°25' E 008°47'0 0.0
2015-Mar-01 00:31N 44°25' E 008°47'0 0.0
2015-Feb-28 23:28N 44°25' E 008°47'0 0.0
2015-Feb-28 22:16N 44°25' E 008°47'0 0.0
2015-Feb-28 21:28N 44°25' E 008°47'0 0.0
2015-Feb-28 20:28N 44°25' E 008°47'0 0.0
2015-Feb-28 19:33N 44°25' E 008°47'4 3.6
2015-Feb-28 18:34N 44°23' E 008°44'5 4.9
2015-Feb-28 17:33N 44°19' E 008°48'1 0.7
2015-Feb-28 16:33N 44°19' E 008°47'0 0.1
2015-Feb-28 15:33N 44°19' E 008°47'0 0.3
2015-Feb-28 14:33N 44°19' E 008°47'1 0.9
2015-Feb-28 13:33N 44°19' E 008°48'9 8.6
2015-Feb-28 12:33N 44°12' E 008°56'1211.5
2015-Feb-28 11:33N 44°03' E 009°06'1211.8
2015-Feb-28 10:33N 43°54' E 009°16'1111.4
2015-Feb-28 09:33N 43°45' E 009°26'0 0.4
2015-Feb-28 08:33N 43°44' E 009°26'0 0.3
2015-Feb-28 07:33N 43°44' E 009°26'0 0.3
2015-Feb-28 06:33N 43°44' E 009°26'0 0.1
2015-Feb-28 05:33N 43°44' E 009°26'0 0.3
2015-Feb-28 04:33N 43°44' E 009°26'1 0.6
2015-Feb-28 03:33N 43°44' E 009°26'1 0.8
2015-Feb-28 02:33N 43°45' E 009°26'1 0.9
2015-Feb-28 01:33N 43°46' E 009°26'1 1.1
2015-Feb-28 00:33N 43°47' E 009°26'1 1.1
2015-Feb-27 23:33N 43°48' E 009°25'1 0.9
2015-Feb-27 22:33N 43°49' E 009°25'4 4.0
2015-Feb-27 21:33N 43°47' E 009°29'1211.9
2015-Feb-27 20:33N 43°39' E 009°42'1211.8
2015-Feb-27 19:33N 43°31' E 009°54'1111.1
2015-Feb-27 18:33N 43°30' E 010°09'8 7.6
2015-Feb-27 17:33N 43°34' E 010°18'0 0.4
2015-Feb-27 16:31N 43°34' E 010°18'0 0.0
2015-Feb-27 15:31N 43°34' E 010°18'0 0.0
2015-Feb-27 14:31N 43°34' E 010°18'0 0.0
2015-Feb-27 13:31N 43°34' E 010°18'0 0.0
2015-Feb-27 12:31N 43°34' E 010°18'0 0.0
2015-Feb-27 11:33N 43°34' E 010°18'0 0.0
2015-Feb-27 10:30N 43°34' E 010°18'0 0.0
2015-Feb-27 09:30N 43°34' E 010°18'0 0.0
2015-Feb-27 08:31N 43°34' E 010°18'0 0.0
2015-Feb-27 07:33N 43°34' E 010°18'0 0.0
2015-Feb-27 06:33N 43°34' E 010°18'0 0.0
2015-Feb-27 05:30N 43°34' E 010°18'0 0.0
2015-Feb-27 04:33N 43°34' E 010°18'0 0.0
2015-Feb-27 03:33N 43°34' E 010°18'0 0.0
2015-Feb-27 02:33N 43°34' E 010°18'0 0.0
2015-Feb-27 01:33N 43°34' E 010°18'0 0.0
2015-Feb-27 00:33N 43°34' E 010°18'0 0.0
2015-Feb-26 23:33N 43°34' E 010°18'0 0.0
2015-Feb-26 22:33N 43°34' E 010°18'0 0.0
2015-Feb-26 21:33N 43°34' E 010°18'0 0.0
2015-Feb-26 20:32N 43°34' E 010°18'0 0.0
2015-Feb-26 19:32N 43°34' E 010°18'0 0.0
2015-Feb-26 18:32N 43°34' E 010°18'0 0.0
2015-Feb-26 17:32N 43°34' E 010°18'0 0.0
2015-Feb-26 16:32N 43°34' E 010°18'0 0.0
2015-Feb-26 15:32N 43°34' E 010°18'0 0.0
2015-Feb-26 14:32N 43°34' E 010°18'0 0.0
2015-Feb-26 13:32N 43°34' E 010°18'0 0.0
2015-Feb-26 12:32N 43°34' E 010°18'0 0.0
2015-Feb-26 11:32N 43°34' E 010°18'0 0.0
2015-Feb-26 10:32N 43°34' E 010°18'0 0.1
2015-Feb-26 09:33N 43°34' E 010°18'4 4.4
2015-Feb-26 08:33N 43°31' E 010°15'1514.9
2015-Feb-26 07:33N 43°17' E 010°07'1111.2
2015-Feb-26 06:33N 43°07' E 010°02'24910.7
2015-Feb-25 07:18N 38°58' E 009°32'811.3
2015-Feb-25 06:33N 39°02' E 009°22'1111.3
2015-Feb-25 05:33N 39°06' E 009°09'7 7.1
2015-Feb-25 04:31N 39°13' E 009°04'0 0.0
2015-Feb-25 03:31N 39°13' E 009°04'0 0.0
2015-Feb-25 02:31N 39°13' E 009°04'0 0.0
2015-Feb-25 01:31N 39°13' E 009°04'0 0.0
2015-Feb-25 00:31N 39°13' E 009°04'0 0.0
2015-Feb-24 23:31N 39°13' E 009°04'0 0.0
2015-Feb-24 22:31N 39°13' E 009°04'0 0.0
2015-Feb-24 21:31N 39°13' E 009°04'0 0.0
2015-Feb-24 20:31N 39°13' E 009°04'0 0.0
2015-Feb-24 19:31N 39°13' E 009°04'0 0.0
2015-Feb-24 18:31N 39°13' E 009°04'0 0.0
2015-Feb-24 17:31N 39°13' E 009°04'0 0.0
2015-Feb-24 16:31N 39°13' E 009°04'0 0.0
2015-Feb-24 15:31N 39°13' E 009°04'0 0.0
2015-Feb-24 14:31N 39°13' E 009°04'0 0.0
2015-Feb-24 13:31N 39°13' E 009°04'0 0.0
2015-Feb-24 12:31N 39°13' E 009°04'0 0.0
2015-Feb-24 11:31N 39°13' E 009°04'0 0.0
2015-Feb-24 10:33N 39°13' E 009°04'0 0.0
2015-Feb-24 09:33N 39°13' E 009°04'0 0.0
2015-Feb-24 08:33N 39°13' E 009°04'0 0.0
2015-Feb-24 07:30N 39°13' E 009°04'0 0.0
2015-Feb-24 06:33N 39°13' E 009°04'0 0.0
2015-Feb-24 05:33N 39°13' E 009°04'0 0.0
2015-Feb-24 04:33N 39°13' E 009°04'  
Track history (hours):
 
Tides and Currents Weather Stations Pressure Air Temp Water Temp Dewpoint Dewpoint Depression Visibility Wind Speed Wind Dir Waves Ship Positions

Hanjin Phoenix

Last reported at 2015-Mar-06 04:27 UTC. Time now 2015-Mar-06 06:02 UTC.
Position N 39°24' W 000°13'.

Length 282.1 m; beam 32.2 m; draft 13 m.

Type: Ship. MMSI: 636090671.

Date/timePositionNaut miles runAvg speedWind from/ knotsBaromVisibWave heightAir tempDewpointWater temp
2015-Mar-06 04:27N 39°24' W 000°13'5 5.5
2015-Mar-06 03:31N 39°27' W 000°19'0 0.0
2015-Mar-06 02:33N 39°27' W 000°19'0 0.0
2015-Mar-06 01:30N 39°27' W 000°19'0 0.0
2015-Mar-06 00:33N 39°27' W 000°19'0 0.0
2015-Mar-05 23:33N 39°27' W 000°19'0 0.0
2015-Mar-05 22:29N 39°27' W 000°19'0 0.0
2015-Mar-05 21:33N 39°27' W 000°19'0 0.0
2015-Mar-05 20:33N 39°27' W 000°19'0 0.0
2015-Mar-05 19:33N 39°27' W 000°19'0 0.0
2015-Mar-05 18:32N 39°27' W 000°19'0 0.0
2015-Mar-05 17:32N 39°27' W 000°19'0 0.0
2015-Mar-05 16:32N 39°27' W 000°19'0 0.0
2015-Mar-05 15:32N 39°27' W 000°19'0 0.0
2015-Mar-05 14:29N 39°27' W 000°19'0 0.0
2015-Mar-05 13:32N 39°27' W 000°19'0 0.0
2015-Mar-05 12:32N 39°27' W 000°19'0 0.0
2015-Mar-05 11:32N 39°27' W 000°19'0 0.0
2015-Mar-05 10:32N 39°27' W 000°19'0 0.0
2015-Mar-05 09:33N 39°27' W 000°19'0 0.0
2015-Mar-05 08:33N 39°27' W 000°19'1 0.8
2015-Mar-05 07:33N 39°26' W 000°19'1110.6
2015-Mar-05 06:33N 39°26' W 000°05'8 2.1
2015-Mar-05 02:32N 39°17' W 000°05'3 1.0
2015-Mar-04 23:09N 39°21' W 000°05'1 1.4
2015-Mar-04 22:33N 39°22' W 000°05'2 1.5
2015-Mar-04 21:31N 39°23' W 000°05'2 1.6
2015-Mar-04 20:32N 39°24' W 000°06'1 1.5
2015-Mar-04 19:33N 39°26' W 000°06'2 2.4
2015-Mar-04 18:33N 39°26' W 000°03'7 2.1
2015-Mar-04 15:17N 39°28' E 000°05'57 3.4
2015-Mar-03 22:24N 40°02' E 001°04'1111.8
2015-Mar-03 21:30N 40°11' E 001°12'1111.2
2015-Mar-03 20:33N 40°20' E 001°20'1111.1
2015-Mar-03 19:33N 40°29' E 001°28'1211.4
2015-Mar-03 18:33N 40°39' E 001°36'1111.2
2015-Mar-03 17:33N 40°48' E 001°45'1111.1
2015-Mar-03 16:32N 40°57' E 001°53'1111.1
2015-Mar-03 15:33N 41°06' E 002°01'1211.2
2015-Mar-03 14:31N 41°16' E 002°10'6 4.9
2015-Mar-03 13:23N 41°21' E 002°10'0 0.0
2015-Mar-03 12:17N 41°21' E 002°10'0 0.0
2015-Mar-03 11:29N 41°21' E 002°10'0 0.0
2015-Mar-03 10:25N 41°21' E 002°10'0 0.0
2015-Mar-03 02:28N 41°21' E 002°10'1 0.3
2015-Mar-03 00:33N 41°21' E 002°10'14 9.5
2015-Mar-02 23:04N 41°23' E 002°29'3418.7
2015-Mar-02 21:16N 41°38' E 003°09'1719.9
2015-Mar-02 20:26N 41°46' E 003°28'3619.1
2015-Mar-02 18:32N 42°02' E 004°12'1819.0
2015-Mar-02 17:33N 42°10' E 004°34'2018.4
2015-Mar-02 16:29N 42°19' E 004°58'1918.9
2015-Mar-02 15:29N 42°28' E 005°21'1918.4
2015-Mar-02 14:26N 42°36' E 005°44'2218.2
2015-Mar-02 13:14N 42°46' E 006°11'1318.9
2015-Mar-02 12:32N 42°52' E 006°27'1919.1
2015-Mar-02 11:33N 43°02' E 006°48'1919.0
2015-Mar-02 10:33N 43°14' E 007°09'1817.9
2015-Mar-02 09:33N 43°24' E 007°29'2218.6
2015-Mar-02 08:22N 43°37' E 007°54'2319.2
2015-Mar-02 07:08N 43°51' E 008°20'1318.8
2015-Mar-02 06:26N 44°02' E 008°29'1718.8
2015-Mar-02 05:32N 44°18' E 008°39'9 7.2
2015-Mar-02 04:16N 44°25' E 008°47'0 0.0
2015-Mar-02 03:31N 44°25' E 008°47'0 0.0
2015-Mar-02 02:31N 44°25' E 008°47'0 0.0
2015-Mar-02 01:22N 44°25' E 008°47'0 0.0
2015-Mar-02 00:22N 44°25' E 008°47'0 0.0
2015-Mar-01 23:25N 44°25' E 008°47'0 0.0
2015-Mar-01 22:22N 44°25' E 008°47'0 0.0
2015-Mar-01 21:16N 44°25' E 008°47'0 0.0
2015-Mar-01 20:22N 44°25' E 008°47'0 0.0
2015-Mar-01 19:22N 44°25' E 008°47'0 0.0
2015-Mar-01 16:28N 44°25' E 008°47'0 0.0
2015-Mar-01 15:16N 44°25' E 008°47'0 0.0
2015-Mar-01 14:04N 44°25' E 008°47'0 0.0
2015-Mar-01 13:16N 44°25' E 008°47'0 0.0
2015-Mar-01 11:28N 44°25' E 008°47'0 0.0
2015-Mar-01 10:28N 44°25' E 008°47'0 0.0
2015-Mar-01 09:28N 44°25' E 008°47'0 0.0
2015-Mar-01 08:28N 44°25' E 008°47'0 0.0
2015-Mar-01 07:28N 44°25' E 008°47'0 0.0
2015-Mar-01 05:31N 44°25' E 008°47'0 0.0
2015-Mar-01 04:22N 44°25' E 008°47'0 0.0
2015-Mar-01 03:31N 44°25' E 008°47'0 0.0
2015-Mar-01 02:31N 44°25' E 008°47'0 0.0
2015-Mar-01 01:28N 44°25' E 008°47'0 0.0
2015-Mar-01 00:31N 44°25' E 008°47'0 0.0
2015-Feb-28 23:28N 44°25' E 008°47'0 0.0
2015-Feb-28 22:16N 44°25' E 008°47'0 0.0
2015-Feb-28 21:28N 44°25' E 008°47'0 0.0
2015-Feb-28 20:28N 44°25' E 008°47'0 0.0
2015-Feb-28 19:33N 44°25' E 008°47'4 3.6
2015-Feb-28 18:34N 44°23' E 008°44'5 4.9
2015-Feb-28 17:33N 44°19' E 008°48'1 0.7
2015-Feb-28 16:33N 44°19' E 008°47'0 0.1
2015-Feb-28 15:33N 44°19' E 008°47'0 0.3
2015-Feb-28 14:33N 44°19' E 008°47'1 0.9
2015-Feb-28 13:33N 44°19' E 008°48'9 8.6
2015-Feb-28 12:33N 44°12' E 008°56'1211.5
2015-Feb-28 11:33N 44°03' E 009°06'1211.8
2015-Feb-28 10:33N 43°54' E 009°16'1111.4
2015-Feb-28 09:33N 43°45' E 009°26'0 0.4
2015-Feb-28 08:33N 43°44' E 009°26'0 0.3
2015-Feb-28 07:33N 43°44' E 009°26'0 0.3
2015-Feb-28 06:33N 43°44' E 009°26'0 0.1
2015-Feb-28 05:33N 43°44' E 009°26'0 0.3
2015-Feb-28 04:33N 43°44' E 009°26'1 0.6
2015-Feb-28 03:33N 43°44' E 009°26'1 0.8
2015-Feb-28 02:33N 43°45' E 009°26'1 0.9
2015-Feb-28 01:33N 43°46' E 009°26'1 1.1
2015-Feb-28 00:33N 43°47' E 009°26'1 1.1
2015-Feb-27 23:33N 43°48' E 009°25'1 0.9
2015-Feb-27 22:33N 43°49' E 009°25'4 4.0
2015-Feb-27 21:33N 43°47' E 009°29'1211.9
2015-Feb-27 20:33N 43°39' E 009°42'1211.8
2015-Feb-27 19:33N 43°31' E 009°54'1111.1
2015-Feb-27 18:33N 43°30' E 010°09'8 7.6
2015-Feb-27 17:33N 43°34' E 010°18'0 0.4
2015-Feb-27 16:31N 43°34' E 010°18'0 0.0
2015-Feb-27 15:31N 43°34' E 010°18'0 0.0
2015-Feb-27 14:31N 43°34' E 010°18'0 0.0
2015-Feb-27 13:31N 43°34' E 010°18'0 0.0
2015-Feb-27 12:31N 43°34' E 010°18'0 0.0
2015-Feb-27 11:33N 43°34' E 010°18'0 0.0
2015-Feb-27 10:30N 43°34' E 010°18'0 0.0
2015-Feb-27 09:30N 43°34' E 010°18'0 0.0
2015-Feb-27 08:31N 43°34' E 010°18'0 0.0
2015-Feb-27 07:33N 43°34' E 010°18'0 0.0
2015-Feb-27 06:33N 43°34' E 010°18'0 0.0
2015-Feb-27 05:30N 43°34' E 010°18'0 0.0
2015-Feb-27 04:33N 43°34' E 010°18'0 0.0
2015-Feb-27 03:33N 43°34' E 010°18'0 0.0
2015-Feb-27 02:33N 43°34' E 010°18'0 0.0
2015-Feb-27 01:33N 43°34' E 010°18'0 0.0
2015-Feb-27 00:33N 43°34' E 010°18'0 0.0
2015-Feb-26 23:33N 43°34' E 010°18'0 0.0
2015-Feb-26 22:33N 43°34' E 010°18'0 0.0
2015-Feb-26 21:33N 43°34' E 010°18'0 0.0
2015-Feb-26 20:32N 43°34' E 010°18'0 0.0
2015-Feb-26 19:32N 43°34' E 010°18'0 0.0
2015-Feb-26 18:32N 43°34' E 010°18'0 0.0
2015-Feb-26 17:32N 43°34' E 010°18'0 0.0
2015-Feb-26 16:32N 43°34' E 010°18'0 0.0
2015-Feb-26 15:32N 43°34' E 010°18'0 0.0
2015-Feb-26 14:32N 43°34' E 010°18'0 0.0
2015-Feb-26 13:32N 43°34' E 010°18'0 0.0
2015-Feb-26 12:32N 43°34' E 010°18'0 0.0
2015-Feb-26 11:32N 43°34' E 010°18'0 0.0
2015-Feb-26 10:32N 43°34' E 010°18'0 0.1
2015-Feb-26 09:33N 43°34' E 010°18'4 4.4
2015-Feb-26 08:33N 43°31' E 010°15'1514.9
2015-Feb-26 07:33N 43°17' E 010°07'1111.2
2015-Feb-26 06:33N 43°07' E 010°02'24910.7
2015-Feb-25 07:18N 38°58' E 009°32'811.3
2015-Feb-25 06:33N 39°02' E 009°22'1111.3
2015-Feb-25 05:33N 39°06' E 009°09'7 7.1
2015-Feb-25 04:31N 39°13' E 009°04'0 0.0
2015-Feb-25 03:31N 39°13' E 009°04'0 0.0
2015-Feb-25 02:31N 39°13' E 009°04'0 0.0
2015-Feb-25 01:31N 39°13' E 009°04'0 0.0
2015-Feb-25 00:31N 39°13' E 009°04'0 0.0
2015-Feb-24 23:31N 39°13' E 009°04'0 0.0
2015-Feb-24 22:31N 39°13' E 009°04'0 0.0
2015-Feb-24 21:31N 39°13' E 009°04'0 0.0
2015-Feb-24 20:31N 39°13' E 009°04'0 0.0
2015-Feb-24 19:31N 39°13' E 009°04'0 0.0
2015-Feb-24 18:31N 39°13' E 009°04'0 0.0
2015-Feb-24 17:31N 39°13' E 009°04'0 0.0
2015-Feb-24 16:31N 39°13' E 009°04'0 0.0
2015-Feb-24 15:31N 39°13' E 009°04'0 0.0
2015-Feb-24 14:31N 39°13' E 009°04'0 0.0
2015-Feb-24 13:31N 39°13' E 009°04'0 0.0
2015-Feb-24 12:31N 39°13' E 009°04'0 0.0
2015-Feb-24 11:31N 39°13' E 009°04'0 0.0
2015-Feb-24 10:33N 39°13' E 009°04'0 0.0
2015-Feb-24 09:33N 39°13' E 009°04'0 0.0
2015-Feb-24 08:33N 39°13' E 009°04'0 0.0
2015-Feb-24 07:30N 39°13' E 009°04'0 0.0
2015-Feb-24 06:33N 39°13' E 009°04'0 0.0
2015-Feb-24 05:33N 39°13' E 009°04'0 0.0
2015-Feb-24 04:33N 39°13' E 009°04'  

Dump ship's entire track history